Time;durP1;ratioP1;P1;durP2;ratioP2;P2;SDS_P1;SDS_P2;PMS_P1;PMS_P2;Temp;Humidity;BMP_temperature;BMP_pressure;BME280_temperature;BME280_humidity;BME280_pressure;Samples;Min_cycle;Max_cycle;Signal;HPM_P1;HPM_P2
2023/04/06 00:01:35;;;;;;;11.75;6.60;;;;;;;2.33;48.68;96888.00;6179650;23;20069;-85
2023/04/06 00:04:03;;;;;;;14.57;7.53;;;;;;;2.28;48.82;96890.16;6181437;23;20073;-83
2023/04/06 00:06:31;;;;;;;10.80;6.45;;;;;;;2.25;48.75;96886.06;6166532;23;20077;-82
2023/04/06 00:08:59;;;;;;;9.60;6.82;;;;;;;2.24;48.77;96878.44;6159744;23;20399;-81
2023/04/06 00:11:27;;;;;;;8.77;6.93;;;;;;;2.26;48.62;96877.38;6159103;23;20109;-82
2023/04/06 00:13:56;;;;;;;8.68;6.70;;;;;;;2.31;48.72;96878.78;6158411;23;20077;-82
2023/04/06 00:16:24;;;;;;;11.13;6.53;;;;;;;2.33;48.59;96875.13;6158392;23;20013;-82
2023/04/06 00:18:53;;;;;;;13.95;7.07;;;;;;;2.37;48.40;96873.16;6159110;23;20084;-82
2023/04/06 00:21:22;;;;;;;9.88;7.22;;;;;;;2.39;48.50;96872.06;6158409;23;20017;-82
2023/04/06 00:23:50;;;;;;;9.95;6.60;;;;;;;2.44;48.22;96864.78;6158073;23;20037;-82
2023/04/06 00:26:17;;;;;;;8.32;5.97;;;;;;;2.47;47.72;96868.88;6158018;23;20494;-82
2023/04/06 00:28:45;;;;;;;8.55;6.25;;;;;;;2.45;48.23;96868.19;6157874;23;20017;-82
2023/04/06 00:31:14;;;;;;;8.77;6.32;;;;;;;2.43;48.31;96865.75;6157873;23;20021;-82
2023/04/06 00:33:42;;;;;;;8.13;6.40;;;;;;;2.40;48.45;96867.72;6157093;23;20025;-82
2023/04/06 00:36:09;;;;;;;11.68;7.55;;;;;;;2.34;48.68;96869.06;6157650;23;20028;-82
2023/04/06 00:38:37;;;;;;;10.50;7.00;;;;;;;2.29;48.50;96871.16;6157499;23;20505;-82
2023/04/06 00:41:05;;;;;;;7.72;6.45;;;;;;;2.25;49.05;96865.47;6157530;23;20049;-82
2023/04/06 00:43:33;;;;;;;9.60;6.45;;;;;;;2.24;48.64;96866.41;6157345;23;20056;-82
2023/04/06 00:46:00;;;;;;;11.02;6.68;;;;;;;2.23;48.61;96858.78;6158386;23;20021;-82
2023/04/06 00:48:31;;;;;;;9.68;6.88;;;;;;;2.19;48.77;96860.81;6169381;23;20029;-83
2023/04/06 00:50:59;;;;;;;9.35;6.95;;;;;;;2.19;48.99;96857.44;6170615;23;20022;-83
2023/04/06 00:53:26;;;;;;;8.43;6.20;;;;;;;2.20;48.71;96864.19;6177746;23;20189;-85
2023/04/06 00:56:26;;;;;;;7.97;5.88;;;;;;;2.25;49.38;96862.91;5174203;27;20047;-84
2023/04/06 00:58:53;;;;;;;17.15;7.97;;;;;;;2.30;48.91;96854.81;5173329;27;20062;-85
2023/04/06 01:01:21;;;;;;;8.75;6.68;;;;;;;2.30;48.78;96854.00;5159442;27;20046;-82
2023/04/06 01:03:50;;;;;;;8.38;6.75;;;;;;;2.34;48.93;96850.19;5155159;27;20042;-83
2023/04/06 01:06:17;;;;;;;8.48;6.60;;;;;;;2.38;48.88;96852.41;5153843;27;20047;-83
2023/04/06 01:08:45;;;;;;;9.18;6.97;;;;;;;2.37;49.03;96848.22;5153897;27;20058;-82
2023/04/06 01:11:13;;;;;;;9.45;6.45;;;;;;;2.34;48.66;96851.03;5152937;27;20566;-82
2023/04/06 01:13:42;;;;;;;11.30;6.50;;;;;;;2.31;48.92;96847.88;5153471;27;20111;-82
2023/04/06 01:16:10;;;;;;;11.77;7.05;;;;;;;2.31;48.86;96848.69;5156991;27;20528;-82
2023/04/06 01:18:39;;;;;;;9.63;7.28;;;;;;;2.34;49.04;96837.34;5174462;27;20051;-82
2023/04/06 01:21:08;;;;;;;12.10;6.40;;;;;;;2.33;48.64;96844.25;5177027;27;20047;-86
2023/04/06 01:23:37;;;;;;;10.23;6.55;;;;;;;2.30;49.21;96843.69;5176875;27;20031;-85
2023/04/06 01:26:05;;;;;;;9.93;6.82;;;;;;;2.27;49.02;96842.16;5165905;27;20043;-83
2023/04/06 01:28:32;;;;;;;12.10;7.30;;;;;;;2.23;49.00;96840.78;5158429;27;20081;-83
2023/04/06 01:31:00;;;;;;;8.40;6.95;;;;;;;2.23;49.27;96835.63;5158595;27;20057;-82
2023/04/06 01:33:28;;;;;;;8.85;6.88;;;;;;;2.20;49.15;96831.53;5157446;27;20047;-86
2023/04/06 01:35:56;;;;;;;7.68;6.18;;;;;;;2.16;49.25;96829.34;5157931;27;20106;-84
2023/04/06 01:38:24;;;;;;;9.07;6.90;;;;;;;2.13;49.51;96827.03;5157603;27;20047;-83
2023/04/06 01:40:53;;;;;;;8.40;6.47;;;;;;;2.10;49.25;96822.94;5161111;27;20049;-83
2023/04/06 01:43:21;;;;;;;8.90;7.03;;;;;;;2.09;49.86;96817.91;5160079;27;20124;-85
2023/04/06 01:45:48;;;;;;;9.13;6.22;;;;;;;2.05;49.41;96812.19;5159146;27;20043;-83
2023/04/06 01:48:16;;;;;;;9.27;6.80;;;;;;;2.01;50.00;96821.94;5158359;27;20047;-85
2023/04/06 01:50:44;;;;;;;10.70;6.72;;;;;;;1.97;49.88;96815.41;5156967;27;20110;-83
2023/04/06 01:53:12;;;;;;;10.13;6.60;;;;;;;1.93;49.87;96816.56;5156397;27;20054;-83
2023/04/06 01:55:39;;;;;;;10.52;7.22;;;;;;;1.90;49.94;96808.28;5156097;27;20053;-82
2023/04/06 01:58:09;;;;;;;12.43;7.07;;;;;;;1.84;50.43;96807.84;5156305;27;20071;-83
2023/04/06 02:00:37;;;;;;;9.07;7.20;;;;;;;1.79;50.40;96812.53;5156479;27;20165;-82
2023/04/06 02:03:05;;;;;;;9.32;6.72;;;;;;;1.75;50.55;96816.28;5163566;22;20465;-76
2023/04/06 02:05:37;;;;;;;12.77;7.93;;;;;;;1.70;50.59;96813.25;5107133;28;20127;-76
2023/04/06 02:08:05;;;;;;;8.85;6.97;;;;;;;1.68;50.44;96811.75;5096095;28;20048;-76
2023/04/06 02:10:33;;;;;;;13.43;7.70;;;;;;;1.65;50.61;96811.03;5095661;28;20052;-76
2023/04/06 02:13:01;;;;;;;10.10;6.25;;;;;;;1.63;50.74;96810.34;5095415;28;20675;-76
2023/04/06 02:15:30;;;;;;;10.93;7.18;;;;;;;1.61;50.97;96809.63;5095867;28;20051;-77
2023/04/06 02:17:58;;;;;;;9.45;7.00;;;;;;;1.60;50.78;96810.59;5095684;28;20050;-77
2023/04/06 02:20:25;;;;;;;10.00;7.40;;;;;;;1.63;50.73;96807.78;5095868;28;20048;-76
2023/04/06 02:22:53;;;;;;;8.50;6.57;;;;;;;1.64;50.58;96801.72;5095125;28;20044;-77
2023/04/06 02:25:21;;;;;;;8.73;6.82;;;;;;;1.61;50.47;96798.53;5095452;28;20044;-77
2023/04/06 02:27:48;;;;;;;8.90;6.68;;;;;;;1.58;50.85;96802.19;5095663;28;20481;-76
2023/04/06 02:30:16;;;;;;;9.93;6.93;;;;;;;1.58;51.02;96796.22;5095392;28;20062;-77
2023/04/06 02:32:45;;;;;;;11.20;6.85;;;;;;;1.55;51.20;96801.59;5095186;28;20506;-78
2023/04/06 02:35:12;;;;;;;10.70;7.28;;;;;;;1.50;50.94;96796.81;5095478;28;20097;-77
2023/04/06 02:37:40;;;;;;;8.77;6.35;;;;;;;1.45;51.12;96793.81;5095066;28;20071;-76
2023/04/06 02:40:09;;;;;;;8.55;7.28;;;;;;;1.41;51.24;96789.84;5095230;28;20586;-76
2023/04/06 02:42:36;;;;;;;8.52;6.55;;;;;;;1.37;51.63;96793.56;5095166;28;20087;-76
2023/04/06 02:45:05;;;;;;;8.95;7.07;;;;;;;1.32;51.80;96793.13;5095467;28;20044;-77
2023/04/06 02:47:33;;;;;;;10.85;7.18;;;;;;;1.28;51.84;96794.28;5094518;28;20046;-76
2023/04/06 02:50:02;;;;;;;11.43;7.57;;;;;;;1.26;52.15;96791.03;5094746;28;20073;-76
2023/04/06 02:52:30;;;;;;;10.05;7.15;;;;;;;1.27;51.96;96790.06;5094847;28;20047;-77
2023/04/06 02:54:57;;;;;;;9.45;6.70;;;;;;;1.28;51.92;96784.03;5095102;28;20055;-76
2023/04/06 02:57:25;;;;;;;11.13;7.10;;;;;;;1.24;51.87;96786.81;5095304;28;20054;-76
2023/04/06 02:59:52;;;;;;;9.55;6.97;;;;;;;1.27;52.10;96787.50;5095397;28;20051;-77
2023/04/06 03:02:20;;;;;;;10.15;6.60;;;;;;;1.28;52.08;96789.16;5094582;28;20048;-77
2023/04/06 03:04:48;;;;;;;10.10;7.25;;;;;;;1.30;51.99;96789.84;5134499;27;20073;-76
2023/04/06 03:07:17;;;;;;;11.80;6.95;;;;;;;1.30;52.06;96785.53;5135459;27;20054;-76
2023/04/06 03:09:45;;;;;;;10.52;7.38;;;;;;;1.30;52.12;96784.72;5135303;27;20107;-77
2023/04/06 03:12:12;;;;;;;13.32;7.13;;;;;;;1.29;51.96;96783.91;5134787;27;20043;-77
2023/04/06 03:14:40;;;;;;;11.65;7.60;;;;;;;1.29;52.20;96788.22;5135310;27;20047;-76
2023/04/06 03:17:07;;;;;;;12.45;7.18;;;;;;;1.30;51.97;96784.72;5134890;27;20054;-76
2023/04/06 03:19:35;;;;;;;11.95;6.68;;;;;;;1.31;51.94;96784.59;5134823;27;20043;-76
2023/04/06 03:22:02;;;;;;;7.80;6.20;;;;;;;1.35;51.80;96785.16;5134607;27;20141;-76
2023/04/06 03:24:31;;;;;;;9.40;7.22;;;;;;;1.36;51.83;96786.81;5135108;27;20043;-76
2023/04/06 03:27:00;;;;;;;10.85;7.65;;;;;;;1.38;51.83;96782.38;5135315;27;20059;-76
2023/04/06 03:29:27;;;;;;;9.77;6.90;;;;;;;1.40;51.92;96786.47;5135217;27;20089;-78
2023/04/06 03:31:55;;;;;;;12.82;8.77;;;;;;;1.38;51.76;96787.50;5135043;27;20051;-76
2023/04/06 03:34:22;;;;;;;10.35;7.32;;;;;;;1.36;51.89;96784.25;5134818;27;20051;-76
2023/04/06 03:36:50;;;;;;;9.48;7.32;;;;;;;1.33;51.95;96789.59;5134262;27;20043;-77
2023/04/06 03:39:36;;;;;;;15.27;7.32;;;;;;;1.31;52.29;96796.63;5135953;27;20053;-77
2023/04/06 03:42:04;;;;;;;10.55;7.57;;;;;;;1.27;52.18;96803.78;5135147;27;20138;-77
2023/04/06 03:44:32;;;;;;;12.07;7.57;;;;;;;1.23;52.28;96800.59;5134716;27;20521;-77
2023/04/06 03:47:00;;;;;;;15.35;8.77;;;;;;;1.18;52.25;96801.88;5135032;27;20050;-76
2023/04/06 03:49:28;;;;;;;11.13;7.82;;;;;;;1.15;52.26;96802.94;5134771;27;20536;-77
2023/04/06 03:51:57;;;;;;;12.95;8.23;;;;;;;1.12;52.55;96805.75;5134576;27;20047;-77
2023/04/06 03:54:24;;;;;;;9.57;7.55;;;;;;;1.14;52.42;96806.47;5144073;27;20055;-77
2023/04/06 03:56:53;;;;;;;11.23;7.82;;;;;;;1.19;52.45;96809.47;5158382;27;20157;-77
2023/04/06 03:59:21;;;;;;;12.05;8.02;;;;;;;1.26;52.36;96809.00;5152584;27;20047;-76
2023/04/06 04:01:48;;;;;;;12.57;8.20;;;;;;;1.30;52.12;96807.84;5135895;27;20548;-76
2023/04/06 04:04:16;;;;;;;14.30;8.98;;;;;;;1.34;52.25;96812.63;5135032;27;20467;-77
2023/04/06 04:06:43;;;;;;;15.70;8.63;;;;;;;1.35;51.87;96810.88;5134779;27;20050;-77
2023/04/06 04:09:11;;;;;;;18.25;10.30;;;;;;;1.32;52.08;96813.69;5134639;27;20047;-77
2023/04/06 04:11:39;;;;;;;18.52;10.15;;;;;;;1.30;52.32;96810.41;5134504;27;20051;-76
2023/04/06 04:14:08;;;;;;;18.83;10.82;;;;;;;1.30;52.06;96807.84;5134655;27;20130;-76
2023/04/06 04:16:35;;;;;;;19.52;10.90;;;;;;;1.24;51.98;96807.38;5134717;27;20051;-76
2023/04/06 04:19:03;;;;;;;22.65;11.27;;;;;;;1.24;52.07;96812.50;5135053;27;20051;-76
2023/04/06 04:21:31;;;;;;;16.48;10.85;;;;;;;1.29;51.86;96806.19;5134343;27;20054;-76
2023/04/06 04:23:58;;;;;;;16.13;9.95;;;;;;;1.33;51.93;96815.31;5134221;27;20050;-76
2023/04/06 04:26:26;;;;;;;18.13;10.65;;;;;;;1.39;51.91;96817.41;5134189;27;20046;-77
2023/04/06 04:28:54;;;;;;;19.42;10.27;;;;;;;1.44;51.56;96823.84;5133907;27;20050;-77
2023/04/06 04:31:23;;;;;;;15.73;10.13;;;;;;;1.47;51.84;96816.81;5134243;27;20058;-76
2023/04/06 04:33:50;;;;;;;17.92;9.38;;;;;;;1.44;51.74;96818.69;5134187;27;20058;-76
2023/04/06 04:36:18;;;;;;;20.17;11.00;;;;;;;1.41;51.70;96821.50;5134152;27;20051;-76
2023/04/06 04:38:45;;;;;;;15.25;10.80;;;;;;;1.38;51.67;96813.22;5134192;27;20425;-76
2023/04/06 04:41:13;;;;;;;19.00;10.18;;;;;;;1.32;51.93;96808.56;5133793;27;20053;-76
2023/04/06 04:43:40;;;;;;;15.23;9.25;;;;;;;1.31;52.03;96806.91;5134010;27;20074;-76
2023/04/06 04:46:08;;;;;;;12.15;9.10;;;;;;;1.28;52.14;96818.25;5135663;27;20494;-76
2023/04/06 04:48:37;;;;;;;15.23;10.70;;;;;;;1.21;52.32;96820.47;5133562;27;20111;-76
2023/04/06 04:51:07;;;;;;;15.68;9.35;;;;;;;1.13;52.30;96820.22;5134631;27;20537;-76
2023/04/06 04:53:34;;;;;;;16.77;9.60;;;;;;;1.04;52.40;96823.50;5134201;28;20050;-76
2023/04/06 04:56:02;;;;;;;16.00;9.23;;;;;;;0.96;52.66;96820.69;5134498;28;20092;-76
2023/04/06 04:58:30;;;;;;;11.73;8.52;;;;;;;0.90;53.00;96823.75;5134505;28;20054;-76
2023/04/06 05:00:57;;;;;;;13.15;8.85;;;;;;;0.87;53.15;96829.91;5134160;28;20047;-76
2023/04/06 05:03:27;;;;;;;16.20;8.60;;;;;;;0.84;53.43;96835.28;5133453;28;20046;-76
2023/04/06 05:05:56;;;;;;;17.33;9.02;;;;;;;0.80;53.41;96837.25;5133996;28;20047;-76
2023/04/06 05:08:24;;;;;;;16.30;9.48;;;;;;;0.80;53.58;96836.44;5134410;28;20130;-76
2023/04/06 05:10:51;;;;;;;16.80;9.40;;;;;;;0.84;53.54;96840.44;5131021;28;20053;-75
2023/04/06 05:13:19;;;;;;;14.80;10.60;;;;;;;0.85;53.56;96838.66;5134125;27;20051;-76
2023/04/06 05:15:47;;;;;;;12.55;9.75;;;;;;;0.81;53.51;96841.47;5147706;27;20070;-77
2023/04/06 05:18:14;;;;;;;18.17;10.23;;;;;;;0.84;53.52;96850.69;5132331;28;20494;-78
2023/04/06 05:20:43;;;;;;;17.73;9.68;;;;;;;0.84;53.68;96852.47;5133175;27;20055;-78
2023/04/06 05:23:12;;;;;;;13.45;9.55;;;;;;;0.85;53.62;96851.50;5113218;28;20047;-77
2023/04/06 05:25:40;;;;;;;13.13;9.25;;;;;;;0.89;53.53;96850.34;5130354;28;20054;-77
2023/04/06 05:28:08;;;;;;;15.43;9.63;;;;;;;0.94;53.37;96855.94;5132697;28;20043;-77
2023/04/06 05:30:35;;;;;;;15.63;10.13;;;;;;;0.97;53.52;96855.75;5133416;28;20047;-77
2023/04/06 05:33:03;;;;;;;16.05;9.13;;;;;;;0.96;53.40;96849.78;5134178;28;20075;-79
2023/04/06 05:35:31;;;;;;;18.40;9.38;;;;;;;0.94;53.26;96856.78;5128937;28;20047;-78
2023/04/06 05:37:58;;;;;;;16.05;9.52;;;;;;;0.93;53.51;96855.13;5112951;28;20495;-76
2023/04/06 05:40:27;;;;;;;16.50;9.95;;;;;;;0.95;53.50;96853.28;5126755;27;20413;-77
2023/04/06 05:42:55;;;;;;;16.40;10.30;;;;;;;0.98;53.52;96862.50;5135393;27;20043;-77
2023/04/06 05:45:22;;;;;;;19.52;10.35;;;;;;;1.02;53.32;96856.19;5136217;27;20047;-77
2023/04/06 05:47:50;;;;;;;14.88;10.30;;;;;;;1.05;53.43;96862.84;5137386;27;20049;-77
2023/04/06 05:50:18;;;;;;;15.45;10.68;;;;;;;1.11;53.13;96863.19;5136480;27;20058;-77
2023/04/06 05:52:46;;;;;;;13.48;10.20;;;;;;;1.16;53.02;96868.00;5116725;28;20059;-77
2023/04/06 05:55:13;;;;;;;20.60;10.57;;;;;;;1.22;53.23;96865.81;5126414;27;20738;-77
2023/04/06 05:57:42;;;;;;;13.57;10.93;;;;;;;1.30;52.93;96869.53;5137095;27;20077;-77
2023/04/06 06:00:11;;;;;;;14.75;11.05;;;;;;;1.35;52.94;96869.97;5136656;27;20308;-77
2023/04/06 06:02:41;;;;;;;14.80;10.68;;;;;;;1.40;52.64;96868.72;5136403;27;20079;-77
2023/04/06 06:05:09;;;;;;;13.23;9.70;;;;;;;1.47;52.46;96870.81;5136077;27;20047;-78
2023/04/06 06:07:37;;;;;;;16.58;9.55;;;;;;;1.55;52.67;96860.72;5136933;27;20122;-77
2023/04/06 06:10:05;;;;;;;16.60;11.43;;;;;;;1.66;52.37;96865.84;5136162;27;20057;-77
2023/04/06 06:12:32;;;;;;;13.95;10.15;;;;;;;1.77;52.48;96870.16;5135759;27;20040;-77
2023/04/06 06:15:01;;;;;;;15.93;10.05;;;;;;;1.88;52.62;96867.59;5134953;27;20054;-77
2023/04/06 06:17:29;;;;;;;15.65;10.80;;;;;;;1.98;51.89;96872.81;5135690;27;20039;-77
2023/04/06 06:19:56;;;;;;;14.90;10.45;;;;;;;2.07;52.08;96872.06;5133878;27;20057;-78
2023/04/06 06:22:24;;;;;;;19.90;10.35;;;;;;;2.15;51.88;96868.91;5134660;27;20438;-78
2023/04/06 06:24:51;;;;;;;13.15;10.38;;;;;;;2.22;51.80;96865.69;5135179;27;20047;-77
2023/04/06 06:27:19;;;;;;;13.45;9.65;;;;;;;2.30;51.86;96867.66;5135571;27;20043;-77
2023/04/06 06:29:47;;;;;;;13.38;9.38;;;;;;;2.38;51.50;96870.41;5134488;27;20502;-78
2023/04/06 06:32:16;;;;;;;13.93;8.98;;;;;;;2.48;51.23;96871.31;5135470;27;20047;-78
2023/04/06 06:34:43;;;;;;;13.15;9.13;;;;;;;2.58;51.32;96871.41;5130313;27;20043;-77
2023/04/06 06:37:11;;;;;;;15.50;10.10;;;;;;;2.66;51.02;96865.63;5135360;27;20042;-77
2023/04/06 06:39:38;;;;;;;10.85;8.70;;;;;;;2.77;50.60;96869.88;5135239;27;20047;-77
2023/04/06 06:42:06;;;;;;;13.98;9.88;;;;;;;2.89;50.70;96872.28;5136337;27;20061;-78
2023/04/06 06:44:34;;;;;;;16.58;10.63;;;;;;;3.01;51.01;96867.84;5135707;27;20047;-77
2023/04/06 06:47:01;;;;;;;19.52;11.73;;;;;;;3.15;50.56;96869.28;5129736;27;20054;-77
2023/04/06 06:49:30;;;;;;;12.27;9.85;;;;;;;3.29;50.04;96873.28;5134859;27;20133;-77
2023/04/06 06:51:58;;;;;;;12.00;9.27;;;;;;;3.42;49.63;96875.63;5148264;27;20524;-77
2023/04/06 06:54:25;;;;;;;12.48;9.27;;;;;;;3.55;49.66;96876.22;5156848;27;20047;-77
2023/04/06 06:56:54;;;;;;;17.90;10.07;;;;;;;3.70;49.62;96885.22;5148935;27;20137;-77
2023/04/06 06:59:21;;;;;;;11.02;8.15;;;;;;;3.86;50.09;96873.59;5135628;27;20046;-77
2023/04/06 07:01:51;;;;;;;15.88;9.52;;;;;;;4.01;50.10;96885.16;5135670;27;20047;-78
2023/04/06 07:04:18;;;;;;;13.88;9.55;;;;;;;4.17;49.49;96881.22;5136636;27;20057;-77
2023/04/06 07:06:47;;;;;;;12.70;9.15;;;;;;;4.32;49.50;96879.88;5142678;27;20043;-78
2023/04/06 07:09:15;;;;;;;13.70;9.35;;;;;;;4.48;49.49;96889.66;5153334;27;20122;-78
2023/04/06 07:11:42;;;;;;;11.30;9.32;;;;;;;4.63;48.79;96877.97;5151287;27;20054;-77
2023/04/06 07:14:11;;;;;;;11.10;9.05;;;;;;;4.80;49.40;96876.44;5136006;27;20047;-77
2023/04/06 07:16:38;;;;;;;12.23;9.48;;;;;;;4.98;49.50;96875.75;5134814;27;20039;-77
2023/04/06 07:19:06;;;;;;;12.43;9.15;;;;;;;5.13;48.44;96880.31;5135201;27;20120;-77
2023/04/06 07:21:34;;;;;;;14.30;9.70;;;;;;;5.33;48.81;96875.88;5134763;27;20070;-78
2023/04/06 07:24:03;;;;;;;12.10;8.75;;;;;;;5.51;47.51;96878.56;5134511;27;20046;-77
2023/04/06 07:26:30;;;;;;;12.43;9.75;;;;;;;5.73;47.19;96884.31;5134262;27;20047;-77
2023/04/06 07:28:58;;;;;;;11.80;9.63;;;;;;;5.91;47.24;96874.81;5135027;27;20043;-78
2023/04/06 07:31:26;;;;;;;14.73;10.10;;;;;;;6.10;46.29;96879.09;5134113;27;20085;-78
2023/04/06 07:33:53;;;;;;;13.60;9.13;;;;;;;6.26;45.95;96880.22;5133406;27;20053;-78
2023/04/06 07:36:21;;;;;;;13.38;9.93;;;;;;;6.43;45.71;96881.97;5134275;27;20049;-80
2023/04/06 07:38:48;;;;;;;11.80;9.43;;;;;;;6.63;45.36;96874.06;5134755;27;20066;-79
2023/04/06 07:41:17;;;;;;;12.48;10.23;;;;;;;6.83;45.03;96882.47;5134526;27;20061;-79
2023/04/06 07:43:45;;;;;;;16.20;10.27;;;;;;;7.03;44.86;96875.28;5134246;27;20574;-78
2023/04/06 07:46:13;;;;;;;14.35;10.70;;;;;;;7.23;43.63;96880.09;5134066;27;20047;-80
2023/04/06 07:48:40;;;;;;;12.73;8.82;;;;;;;7.40;43.39;96882.81;5134674;27;20134;-79
2023/04/06 07:51:10;;;;;;;12.77;9.85;;;;;;;7.58;42.37;96880.13;5134348;27;20073;-79
2023/04/06 07:53:37;;;;;;;11.10;8.38;;;;;;;7.82;41.72;96882.81;5133242;27;20512;-78
2023/04/06 07:56:05;;;;;;;12.02;9.25;;;;;;;8.06;40.57;96883.84;5133870;27;20047;-79
2023/04/06 07:58:34;;;;;;;16.52;7.85;;;;;;;8.33;39.49;96885.38;5130816;27;20046;-79
2023/04/06 08:01:02;;;;;;;10.90;8.95;;;;;;;8.57;40.67;96882.03;5113161;27;20050;-78
2023/04/06 08:03:29;;;;;;;11.18;8.18;;;;;;;9.13;39.47;96876.13;5124144;22;20122;-84
2023/04/06 08:05:57;;;;;;;11.27;9.30;;;;;;;10.94;36.64;96879.41;5115401;28;20130;-87
2023/04/06 08:08:25;;;;;;;12.63;9.43;;;;;;;12.98;32.34;96880.41;5103090;28;20058;-86
2023/04/06 08:10:53;;;;;;;12.82;8.93;;;;;;;14.58;29.98;96881.19;5095082;28;20048;-84
2023/04/06 08:13:20;;;;;;;15.63;9.80;;;;;;;15.78;28.04;96879.28;5094781;28;20046;-80
2023/04/06 08:15:49;;;;;;;12.07;9.25;;;;;;;16.73;26.18;96886.50;5095628;28;20064;-86
2023/04/06 08:18:17;;;;;;;13.75;9.95;;;;;;;17.54;25.35;96874.25;5097767;28;20055;-87
2023/04/06 08:20:45;;;;;;;12.00;9.45;;;;;;;18.22;25.08;96875.13;5106080;28;20046;-88
2023/04/06 08:23:13;;;;;;;14.18;9.20;;;;;;;18.82;23.97;96880.38;5122330;28;20067;-88
2023/04/06 08:25:40;;;;;;;13.18;9.55;;;;;;;19.53;23.62;96880.41;5123805;28;20043;-87
2023/04/06 08:28:09;;;;;;;11.95;9.45;;;;;;;20.11;22.25;96884.00;5106612;28;20048;-87
2023/04/06 08:30:37;;;;;;;12.93;9.25;;;;;;;20.53;22.05;96881.88;5111122;28;20048;-84
2023/04/06 08:33:06;;;;;;;10.25;8.25;;;;;;;20.98;21.98;96880.25;5114444;28;20047;-87
2023/04/06 08:35:33;;;;;;;10.73;8.57;;;;;;;21.66;20.64;96880.19;5109234;28;20097;-84
2023/04/06 08:38:01;;;;;;;11.98;9.38;;;;;;;22.18;20.29;96874.44;5113730;28;20052;-89
2023/04/06 08:40:29;;;;;;;13.00;9.25;;;;;;;22.29;19.70;96870.88;5115289;28;20055;-91
2023/04/06 08:42:57;;;;;;;10.27;8.65;;;;;;;22.63;19.16;96884.00;5096781;28;20052;-87
2023/04/06 08:45:25;;;;;;;11.82;8.60;;;;;;;22.89;18.85;96869.03;5103130;28;20062;-88
2023/04/06 08:47:54;;;;;;;12.82;8.32;;;;;;;22.90;18.84;96878.63;5099979;28;20044;-83
2023/04/06 08:50:25;;;;;;;8.55;6.78;;;;;;;22.92;18.77;96873.06;5107553;28;20051;-85
2023/04/06 08:52:53;;;;;;;10.88;7.57;;;;;;;23.38;18.75;96873.41;5103295;28;20051;-88
2023/04/06 08:55:22;;;;;;;9.20;6.47;;;;;;;23.81;17.21;96875.00;5106674;28;20044;-87
2023/04/06 08:57:53;;;;;;;8.23;6.95;;;;;;;23.92;16.39;96867.03;5105263;28;20134;-86
2023/04/06 09:00:21;;;;;;;8.52;7.28;;;;;;;23.80;17.06;96865.41;5124211;28;20545;-82
2023/04/06 09:02:50;;;;;;;10.23;7.55;;;;;;;24.02;16.44;96864.41;5126457;28;20054;-84
2023/04/06 09:05:19;;;;;;;11.05;8.07;;;;;;;23.90;16.68;96864.66;5126866;28;20047;-85
2023/04/06 09:07:48;;;;;;;8.65;7.75;;;;;;;23.77;16.92;96857.94;5124842;28;20124;-85
2023/04/06 09:10:17;;;;;;;10.63;7.88;;;;;;;23.69;16.92;96855.72;5118707;28;20056;-80
2023/04/06 09:12:45;;;;;;;9.85;7.60;;;;;;;23.59;16.68;96853.84;5121794;28;20047;-81
2023/04/06 09:15:19;;;;;;;9.80;8.13;;;;;;;23.50;16.93;96854.56;5120627;28;20051;-84
2023/04/06 09:17:53;;;;;;;9.60;8.27;;;;;;;23.34;17.46;96859.00;5114076;28;20067;-80
2023/04/06 09:20:25;;;;;;;10.23;8.30;;;;;;;23.02;17.80;96851.88;5125857;28;20047;-82
2023/04/06 09:22:55;;;;;;;9.20;8.18;;;;;;;22.74;17.72;96858.25;5117485;28;20138;-82
2023/04/06 09:25:26;;;;;;;8.23;7.38;;;;;;;22.33;18.72;96858.69;5108222;28;20067;-81
2023/04/06 09:28:00;;;;;;;8.75;7.47;;;;;;;21.95;17.70;96856.91;5105851;28;20048;-83
2023/04/06 09:30:28;;;;;;;10.38;6.70;;;;;;;21.75;19.57;96857.47;5107166;28;20048;-82
2023/04/06 09:32:57;;;;;;;8.95;6.70;;;;;;;21.45;18.71;96864.00;5107059;28;20116;-84
2023/04/06 09:35:26;;;;;;;8.00;6.97;;;;;;;21.13;18.60;96853.16;5109654;28;20055;-81
2023/04/06 09:37:56;;;;;;;6.85;6.10;;;;;;;20.94;20.00;96860.56;5119235;28;20048;-82
2023/04/06 09:40:24;;;;;;;6.50;5.65;;;;;;;20.87;19.82;96858.06;5120376;28;20036;-83
2023/04/06 09:42:54;;;;;;;8.20;5.30;;;;;;;20.81;21.75;96848.44;5123345;28;20044;-85
2023/04/06 09:45:21;;;;;;;9.57;6.90;;;;;;;20.71;20.22;96854.38;5118447;28;20036;-86
2023/04/06 09:47:51;;;;;;;6.80;6.13;;;;;;;20.64;20.29;96856.38;5114111;28;20053;-82
2023/04/06 09:50:20;;;;;;;8.98;7.10;;;;;;;20.43;19.45;96843.78;5112854;28;20047;-80
2023/04/06 09:52:50;;;;;;;8.15;7.35;;;;;;;20.10;20.32;96848.78;5107265;28;20054;-81
2023/04/06 09:55:26;;;;;;;10.63;7.00;;;;;;;19.98;20.14;96845.34;5106571;28;20060;-80
2023/04/06 09:58:02;;;;;;;10.00;7.53;;;;;;;19.80;19.48;96838.38;5105779;28;20120;-80
2023/04/06 10:00:33;;;;;;;8.95;7.47;;;;;;;19.70;20.47;96839.00;5115920;28;20060;-83
2023/04/06 10:03:12;;;;;;;10.60;7.75;;;;;;;19.69;19.93;96836.56;5115807;28;20111;-81
2023/04/06 10:05:47;;;;;;;8.55;5.97;;;;;;;19.75;20.54;96841.75;5114841;28;20074;-80
2023/04/06 10:08:16;;;;;;;8.55;7.32;;;;;;;19.68;20.32;96835.75;5120978;28;20130;-81
2023/04/06 10:10:45;;;;;;;9.68;7.82;;;;;;;19.48;20.21;96830.84;5124381;28;20047;-85
2023/04/06 10:13:13;;;;;;;8.20;7.28;;;;;;;19.27;20.64;96832.25;5106604;28;20055;-79
2023/04/06 10:15:42;;;;;;;9.63;7.57;;;;;;;19.21;20.49;96829.72;5121170;28;20047;-80
2023/04/06 10:18:10;;;;;;;9.68;7.28;;;;;;;19.03;20.34;96836.72;5121524;28;20071;-81
2023/04/06 10:20:42;;;;;;;7.82;7.03;;;;;;;18.84;20.61;96836.03;5105576;28;20050;-81
2023/04/06 10:23:15;;;;;;;8.05;6.68;;;;;;;18.71;21.03;96837.00;5107352;28;20054;-81
2023/04/06 10:25:55;;;;;;;8.07;6.25;;;;;;;18.97;21.42;96831.56;5123907;28;20043;-79
2023/04/06 10:28:23;;;;;;;7.88;6.68;;;;;;;19.17;20.12;96831.22;5122743;28;20092;-79
2023/04/06 10:30:58;;;;;;;8.52;6.00;;;;;;;19.41;21.21;96840.72;5113911;28;20547;-81
2023/04/06 10:33:26;;;;;;;8.60;7.70;;;;;;;19.59;20.26;96831.88;5118095;28;20103;-82
2023/04/06 10:35:55;;;;;;;8.23;7.43;;;;;;;19.69;19.81;96833.91;5119656;28;20055;-82
2023/04/06 10:38:34;;;;;;;7.90;6.40;;;;;;;19.69;19.18;96840.03;5124610;28;20049;-81
2023/04/06 10:41:07;;;;;;;9.57;6.88;;;;;;;19.65;20.17;96825.63;5118231;28;20048;-81
2023/04/06 10:43:36;;;;;;;10.38;7.13;;;;;;;19.50;20.21;96822.66;5121821;28;20522;-80
2023/04/06 10:46:05;;;;;;;11.25;6.93;;;;;;;19.34;22.08;96832.91;5122161;28;20482;-81
2023/04/06 10:48:41;;;;;;;9.05;7.30;;;;;;;19.24;22.19;96826.59;5112953;28;20078;-80
2023/04/06 10:51:10;;;;;;;8.63;7.22;;;;;;;19.09;20.97;96819.94;5109365;28;20464;-82
2023/04/06 10:53:39;;;;;;;9.38;7.50;;;;;;;18.90;22.25;96821.09;5119683;28;20111;-81
2023/04/06 10:56:11;;;;;;;11.77;7.00;;;;;;;18.73;21.20;96818.28;5124403;28;20414;-79
2023/04/06 10:58:44;;;;;;;7.55;6.45;;;;;;;18.64;21.62;96814.38;5123527;28;20055;-80
2023/04/06 11:01:12;;;;;;;9.15;7.03;;;;;;;18.59;21.33;96811.63;5117114;28;20119;-81
2023/04/06 11:03:46;;;;;;;9.23;7.13;;;;;;;18.51;21.72;96818.03;5099019;28;20420;-78
2023/04/06 11:06:19;;;;;;;9.85;6.97;;;;;;;18.40;20.74;96813.53;5099682;28;20048;-81
2023/04/06 11:08:47;;;;;;;9.93;6.35;;;;;;;18.40;21.61;96816.16;5116046;28;20047;-85
2023/04/06 11:11:18;;;;;;;10.20;7.45;;;;;;;18.35;20.95;96811.56;5101589;28;20048;-83
2023/04/06 11:13:50;;;;;;;7.57;6.78;;;;;;;18.15;21.38;96813.66;5105479;28;20048;-80
2023/04/06 11:16:19;;;;;;;8.95;6.63;;;;;;;17.94;22.32;96815.78;5104831;28;20059;-80
2023/04/06 11:18:55;;;;;;;7.65;6.22;;;;;;;17.86;22.11;96810.81;5110847;28;20044;-79
2023/04/06 11:21:34;;;;;;;8.60;6.78;;;;;;;17.81;21.71;96805.34;5105337;28;20089;-83
2023/04/06 11:24:09;;;;;;;8.80;7.80;;;;;;;17.67;21.09;96802.88;5113884;28;20119;-79
2023/04/06 11:26:44;;;;;;;8.77;6.63;;;;;;;17.45;22.05;96794.63;5116416;28;20048;-82
2023/04/06 11:29:13;;;;;;;7.93;6.72;;;;;;;17.35;22.60;96796.16;5119988;28;20077;-82
2023/04/06 11:31:42;;;;;;;8.07;6.75;;;;;;;17.20;22.73;96797.31;5114756;28;20050;-82
2023/04/06 11:34:11;;;;;;;14.18;7.20;;;;;;;17.16;23.23;96792.72;5118869;28;20052;-82
2023/04/06 11:36:42;;;;;;;7.68;6.60;;;;;;;17.14;22.90;96795.56;5120658;28;20510;-82
2023/04/06 11:39:10;;;;;;;10.30;7.20;;;;;;;16.99;22.68;96787.19;5121488;28;20110;-81